Hundvaag 1 weather for Feb 1996
Month no. 104
Obs.
Da.
Temp. Dew Point Precip. Wind
Speed
Wind gusts Cloud cover Press. Humidity Wind dir. Sunny OPT
01.02.1996 -1,5   0,0     0          
02.02.1996 -4,1   0,0     10          
03.02.1996 -5,2   0,0     10       1  
04.02.1996 -4,5   0,0     2       1  
05.02.1996 -2,7   1,6     0          
06.02.1996 -0,1   0,7     0       1  
07.02.1996 -4,2   0,0     8       1  
08.02.1996 -5,2   0,0     0          
09.02.1996 -5,5   0,0     10       1  
10.02.1996 -2,3   0,0     0          
11.02.1996 -0,7   0,0     1          
12.02.1996 0,2   0,0     0          
13.02.1996 -1,2   0,0     7       1  
14.02.1996 -5,0   0,0     7          
15.02.1996 2,7   15,5     0          
16.02.1996 4,5   16,0     0          
17.02.1996 1,8   9,0     9       1  
18.02.1996 -2,7   0,0     0          
19.02.1996 -6,7   0,0     2       1  
20.02.1996 -2,1   0,0     10       1  
21.02.1996 -6,5   0,0     10       1  
22.02.1996 -1,5   1,1     0          
23.02.1996 0,2   0,0     1          
24.02.1996 1,8   0,0     2          
25.02.1996 0,5   1,0     0          
26.02.1996 1,4   8,9     2          
27.02.1996 1,0   0,8     10       1  
28.02.1996 -0,8   3,2     3          
29.02.1996 0,2   1,9     8       1  
                       
                       
Avrg/Sum -1,7   59,7     3,9       12